createdAt,value
2018-12-11T00:00:40.332Z,90.50
2018-12-11T00:03:12.117Z,90.40
2018-12-11T00:05:43.226Z,90.30
2018-12-11T00:08:12.299Z,90.50
2018-12-11T00:10:41.374Z,90.30
2018-12-11T00:13:10.407Z,90.10
2018-12-11T00:15:39.421Z,90.00
2018-12-11T00:18:08.773Z,90.00
2018-12-11T00:20:37.861Z,90.30
2018-12-11T00:23:06.900Z,90.20
2018-12-11T00:25:35.965Z,90.20
2018-12-11T00:28:05.256Z,90.20
2018-12-11T00:30:34.360Z,90.00
2018-12-11T00:33:03.395Z,90.00
2018-12-11T00:35:32.654Z,90.40
2018-12-11T00:38:01.661Z,90.40
2018-12-11T00:40:30.698Z,90.30
2018-12-11T00:42:59.710Z,90.20
2018-12-11T00:45:28.937Z,90.30
2018-12-11T00:47:57.999Z,90.20
2018-12-11T00:50:27.251Z,90.20
2018-12-11T00:52:56.532Z,90.10
2018-12-11T00:55:25.847Z,90.00
2018-12-11T00:57:54.916Z,89.90
2018-12-11T01:00:24.132Z,89.70
2018-12-11T01:02:53.154Z,89.90
2018-12-11T01:05:22.208Z,90.10
2018-12-11T01:07:51.553Z,90.10
2018-12-11T01:10:20.750Z,90.00
2018-12-11T01:12:50.358Z,89.60
2018-12-11T01:15:19.487Z,89.40
2018-12-11T01:17:48.666Z,89.40
2018-12-11T01:20:17.736Z,89.60
2018-12-11T01:22:47.306Z,89.70
2018-12-11T01:25:16.540Z,89.60
2018-12-11T01:27:45.557Z,89.60
2018-12-11T01:30:14.764Z,89.20
2018-12-11T01:32:43.847Z,89.20
2018-12-11T01:35:12.887Z,89.10
2018-12-11T01:37:42.286Z,88.60
2018-12-11T01:40:11.465Z,88.70
2018-12-11T01:42:40.592Z,89.10
2018-12-11T01:45:09.634Z,88.60
2018-12-11T01:47:38.714Z,89.40
2018-12-11T01:50:07.847Z,89.00
2018-12-11T01:52:36.998Z,89.30
2018-12-11T01:55:06.297Z,89.20
2018-12-11T01:57:35.504Z,89.60
2018-12-11T02:00:06.006Z,89.70
2018-12-11T02:02:36.709Z,89.40
2018-12-11T02:05:07.222Z,89.30
2018-12-11T02:07:36.242Z,88.90
2018-12-11T02:10:05.580Z,89.50
2018-12-11T02:12:34.716Z,89.30
2018-12-11T02:15:04.188Z,89.00
2018-12-11T02:17:33.384Z,88.80
2018-12-11T02:20:02.991Z,88.70
2018-12-11T02:22:32.096Z,89.10
2018-12-11T02:25:01.271Z,88.80
2018-12-11T02:27:31.825Z,89.20
2018-12-11T02:30:01.038Z,89.00
2018-12-11T02:32:30.199Z,89.10
2018-12-11T02:34:59.359Z,89.50
2018-12-11T02:37:28.383Z,89.50
2018-12-11T02:39:57.695Z,89.30
2018-12-11T02:42:27.018Z,89.50
2018-12-11T02:44:56.097Z,89.30
2018-12-11T02:47:25.139Z,89.60
2018-12-11T02:49:54.286Z,89.50
2018-12-11T02:52:24.265Z,89.60
2018-12-11T02:54:53.294Z,89.60
2018-12-11T02:57:22.315Z,89.60
2018-12-11T02:59:51.444Z,90.00
2018-12-11T03:02:20.477Z,89.80
2018-12-11T03:04:49.534Z,89.10
2018-12-11T03:07:18.532Z,89.00
2018-12-11T03:09:47.632Z,89.30
2018-12-11T03:12:17.069Z,89.50
2018-12-11T03:14:46.123Z,88.70
2018-12-11T03:17:15.163Z,89.50
2018-12-11T03:19:44.598Z,89.40
2018-12-11T03:22:13.786Z,89.60
2018-12-11T03:24:42.825Z,89.80
2018-12-11T03:27:11.900Z,89.70
2018-12-11T03:29:40.959Z,90.00
2018-12-11T03:32:10.045Z,89.60
2018-12-11T03:34:39.181Z,89.60
2018-12-11T03:37:08.191Z,89.70
2018-12-11T03:39:39.242Z,89.50
2018-12-11T03:42:08.552Z,89.40
2018-12-11T03:44:37.586Z,89.70
2018-12-11T03:47:06.645Z,89.20
2018-12-11T03:49:35.973Z,89.20
2018-12-11T03:52:05.002Z,89.30
2018-12-11T03:54:34.037Z,89.10
2018-12-11T03:57:03.267Z,89.90
2018-12-11T03:59:32.292Z,89.70
2018-12-11T04:02:01.656Z,89.90
2018-12-11T04:04:30.724Z,90.00
2018-12-11T04:06:59.804Z,90.00
2018-12-11T04:09:28.828Z,90.10
2018-12-11T04:11:58.187Z,90.10
2018-12-11T04:14:28.925Z,89.90
2018-12-11T04:16:57.958Z,89.60
2018-12-11T04:19:27.063Z,90.00
2018-12-11T04:21:56.118Z,90.10
2018-12-11T04:24:25.189Z,89.90
2018-12-11T04:26:56.313Z,89.40
2018-12-11T04:29:25.334Z,90.00
2018-12-11T04:31:54.396Z,89.60
2018-12-11T04:34:23.439Z,89.90
2018-12-11T04:36:52.479Z,90.00
2018-12-11T04:39:21.496Z,89.70
2018-12-11T04:41:50.560Z,89.60
2018-12-11T04:44:19.582Z,89.00
2018-12-11T04:46:48.942Z,89.50
2018-12-11T04:49:17.934Z,89.10
2018-12-11T04:51:47.006Z,89.20
2018-12-11T04:54:16.031Z,89.50
2018-12-11T04:56:45.096Z,88.70
2018-12-11T04:59:14.098Z,88.50
2018-12-11T05:01:43.211Z,88.30
2018-12-11T05:04:12.462Z,88.50
2018-12-11T05:06:41.519Z,88.70
2018-12-11T05:09:10.523Z,88.20
2018-12-11T05:11:39.556Z,88.60
2018-12-11T05:14:08.574Z,88.70
2018-12-11T05:16:37.652Z,88.70
2018-12-11T05:19:06.696Z,88.90
2018-12-11T05:21:35.700Z,89.00
2018-12-11T05:24:04.768Z,89.30
2018-12-11T05:26:33.816Z,89.10
2018-12-11T05:29:02.855Z,89.50
2018-12-11T05:31:31.968Z,89.20
2018-12-11T05:34:00.999Z,89.30
2018-12-11T05:36:30.072Z,89.50
2018-12-11T05:39:00.898Z,89.60
2018-12-11T05:41:31.935Z,89.50
2018-12-11T05:44:01.140Z,89.40
2018-12-11T05:46:30.439Z,90.00
2018-12-11T05:48:59.561Z,89.70
2018-12-11T05:51:28.605Z,89.80
2018-12-11T05:53:57.637Z,89.70
2018-12-11T05:56:26.674Z,89.80
2018-12-11T05:58:55.721Z,89.50
2018-12-11T06:01:24.803Z,89.50
2018-12-11T06:03:53.835Z,90.00
2018-12-11T06:06:24.738Z,90.20
2018-12-11T06:08:53.893Z,90.30
2018-12-11T06:11:23.333Z,90.50
2018-12-11T06:13:52.409Z,90.50
2018-12-11T06:16:21.699Z,90.60
2018-12-11T06:18:51.171Z,90.70
2018-12-11T06:21:20.270Z,90.80
2018-12-11T06:23:49.629Z,91.00
2018-12-11T06:26:18.683Z,91.00
2018-12-11T06:28:47.860Z,91.00
2018-12-11T06:31:16.884Z,90.80
2018-12-11T06:33:46.015Z,91.10
2018-12-11T06:36:15.034Z,90.90
2018-12-11T06:38:44.128Z,90.70
2018-12-11T06:41:13.349Z,90.50
2018-12-11T06:43:42.748Z,90.60
2018-12-11T06:46:11.764Z,90.40
2018-12-11T06:48:40.950Z,90.40
2018-12-11T06:51:10.084Z,90.20
2018-12-11T06:53:39.116Z,90.00
2018-12-11T06:56:08.138Z,90.10
2018-12-11T06:58:37.209Z,90.20
2018-12-11T07:01:06.237Z,90.20
2018-12-11T07:03:35.316Z,90.20
2018-12-11T07:06:10.841Z,90.10
2018-12-11T07:08:39.897Z,90.10
2018-12-11T07:11:10.059Z,90.00
2018-12-11T07:13:39.111Z,89.70
2018-12-11T07:16:08.235Z,89.40
2018-12-11T07:18:37.313Z,90.00
2018-12-11T07:21:06.743Z,89.90
2018-12-11T07:23:35.783Z,89.60
2018-12-11T07:26:04.860Z,89.20
2018-12-11T07:28:33.894Z,89.20
2018-12-11T08:34:37.206Z,87.50
2018-12-11T08:37:06.459Z,86.90
2018-12-11T08:39:35.559Z,87.20
2018-12-11T08:42:04.599Z,86.30
2018-12-11T08:44:33.619Z,87.60
2018-12-11T08:47:02.667Z,86.90
2018-12-11T08:49:31.701Z,86.40
2018-12-11T08:52:00.777Z,86.50
2018-12-11T08:54:31.431Z,86.80
2018-12-11T08:57:12.625Z,86.40
2018-12-11T08:59:41.711Z,85.90
2018-12-11T09:02:10.737Z,86.80
2018-12-11T09:04:41.343Z,86.00
2018-12-11T09:07:10.756Z,85.10
2018-12-11T09:09:40.041Z,84.70
2018-12-11T09:12:09.113Z,84.80
2018-12-11T09:14:38.409Z,84.10
2018-12-11T09:17:10.292Z,84.20
2018-12-11T09:19:38.854Z,83.30
2018-12-11T09:22:08.174Z,82.80
2018-12-11T09:24:37.431Z,81.70
2018-12-11T09:27:06.477Z,82.80
2018-12-11T09:29:35.579Z,81.90
2018-12-11T09:32:04.801Z,82.00
2018-12-11T09:34:34.995Z,81.20
2018-12-11T09:37:04.276Z,80.90
2018-12-11T09:39:33.343Z,81.20
2018-12-11T09:42:07.026Z,81.40
2018-12-11T09:44:33.687Z,80.10
2018-12-11T09:47:03.271Z,81.50
2018-12-11T09:49:32.389Z,80.30
2018-12-11T09:52:01.591Z,79.60
2018-12-11T09:54:30.681Z,80.10
2018-12-11T09:57:00.094Z,80.50
2018-12-11T09:59:29.185Z,82.00
2018-12-11T10:01:58.207Z,82.40
2018-12-11T10:04:27.337Z,81.50
2018-12-11T10:06:56.393Z,80.60
2018-12-11T10:09:25.468Z,79.90
2018-12-11T10:11:54.607Z,80.90
2018-12-11T10:14:23.707Z,78.60
2018-12-11T10:16:52.949Z,78.30
2018-12-11T10:19:22.065Z,77.90
2018-12-11T10:21:51.115Z,78.70
2018-12-11T10:24:22.493Z,77.60
2018-12-11T10:26:51.562Z,78.50
2018-12-11T10:29:20.814Z,77.70
2018-12-11T10:31:49.831Z,75.60
2018-12-11T10:34:18.930Z,76.90
2018-12-11T10:36:49.417Z,76.90
2018-12-11T10:39:18.658Z,76.00
2018-12-11T10:41:56.170Z,76.50
2018-12-11T10:44:25.761Z,75.60
2018-12-11T10:46:55.728Z,76.70
2018-12-11T10:49:27.732Z,77.30
2018-12-11T10:51:57.516Z,77.50
2018-12-11T10:54:27.339Z,75.80
2018-12-11T10:56:59.525Z,74.60
2018-12-11T10:59:28.558Z,75.60
2018-12-11T11:02:02.512Z,74.80
2018-12-11T11:04:31.724Z,72.50
2018-12-11T11:07:00.881Z,72.80
2018-12-11T11:09:29.958Z,73.40
2018-12-11T11:11:59.042Z,73.20
2018-12-11T11:14:28.405Z,72.40
2018-12-11T11:16:57.414Z,74.00
2018-12-11T11:19:26.586Z,74.80
2018-12-11T11:21:55.669Z,75.40
2018-12-11T11:24:24.708Z,75.00
2018-12-11T11:26:53.729Z,74.30
2018-12-11T11:29:22.747Z,73.30
2018-12-11T11:31:51.793Z,72.90
2018-12-11T11:34:20.839Z,73.60
2018-12-11T11:36:49.876Z,73.60
2018-12-11T11:39:19.033Z,74.10
2018-12-11T11:41:48.295Z,73.50
2018-12-11T11:44:17.602Z,72.90
2018-12-11T11:46:46.999Z,72.60
2018-12-11T11:49:16.613Z,74.20
2018-12-11T11:51:45.621Z,73.80
2018-12-11T11:54:14.856Z,74.00
2018-12-11T11:56:44.139Z,74.00
2018-12-11T11:59:13.404Z,73.40
2018-12-11T12:01:42.406Z,74.60
2018-12-11T12:04:11.498Z,72.10
2018-12-11T12:06:40.529Z,71.60
2018-12-11T12:09:09.655Z,71.50
2018-12-11T12:11:40.047Z,70.80
2018-12-11T12:14:09.178Z,72.20
2018-12-11T12:16:38.533Z,70.90
2018-12-11T12:19:07.875Z,70.40
2018-12-11T12:21:36.898Z,71.60
2018-12-11T12:24:06.658Z,71.40
2018-12-11T12:26:36.409Z,69.50
2018-12-11T12:29:05.579Z,69.80
2018-12-11T12:31:34.721Z,69.80
2018-12-11T12:34:03.906Z,71.90
2018-12-11T12:36:33.048Z,71.70
2018-12-11T12:39:02.145Z,71.30
2018-12-11T12:41:33.372Z,70.30
2018-12-11T12:44:02.706Z,70.90
2018-12-11T12:46:31.842Z,70.40
2018-12-11T12:49:01.023Z,71.30
2018-12-11T12:51:30.071Z,71.10
2018-12-11T12:53:59.200Z,71.60
2018-12-11T12:56:28.556Z,70.10
2018-12-11T12:58:57.882Z,69.30
2018-12-11T13:01:26.946Z,70.20
2018-12-11T13:03:57.022Z,70.00
2018-12-11T13:06:26.358Z,68.50
2018-12-11T13:08:55.564Z,69.20
2018-12-11T13:11:24.716Z,70.60
2018-12-11T13:13:53.974Z,70.60
2018-12-11T13:16:23.271Z,71.50
2018-12-11T13:18:52.348Z,71.30
2018-12-11T13:21:21.378Z,71.40
2018-12-11T13:23:50.438Z,71.30
2018-12-11T13:26:19.476Z,71.70
2018-12-11T13:28:48.560Z,71.90
2018-12-11T13:31:17.545Z,71.30
2018-12-11T13:33:46.591Z,72.50
2018-12-11T13:36:15.823Z,70.10
2018-12-11T13:38:44.965Z,71.40
2018-12-11T13:41:14.104Z,72.70
2018-12-11T13:43:44.346Z,71.00
2018-12-11T13:46:13.641Z,72.10
2018-12-11T13:48:42.893Z,73.10
2018-12-11T13:51:13.450Z,73.10
2018-12-11T13:53:42.475Z,74.20
2018-12-11T13:56:11.465Z,74.30
2018-12-11T13:58:40.548Z,73.70
2018-12-11T14:01:09.620Z,74.30
2018-12-11T14:03:38.790Z,74.80
2018-12-11T14:06:08.044Z,74.20
2018-12-11T14:08:38.347Z,74.50
2018-12-11T14:11:07.467Z,76.00
2018-12-11T14:13:36.561Z,75.40
2018-12-11T14:16:05.729Z,76.50
2018-12-11T14:18:37.552Z,76.00
2018-12-11T14:21:05.783Z,75.30
2018-12-11T14:23:34.885Z,76.20
2018-12-11T14:26:03.956Z,76.80
2018-12-11T14:28:32.969Z,76.00
2018-12-11T14:31:02.630Z,76.20
2018-12-11T14:33:31.673Z,76.40
2018-12-11T14:36:01.055Z,76.90
2018-12-11T14:38:30.095Z,77.20
2018-12-11T14:40:59.206Z,76.90
2018-12-11T14:43:28.448Z,77.40
2018-12-11T14:45:57.566Z,77.50
2018-12-11T14:48:26.556Z,77.60
2018-12-11T14:50:56.036Z,77.80
2018-12-11T14:53:25.187Z,77.60
2018-12-11T14:55:54.596Z,78.20
2018-12-11T14:58:23.701Z,78.00
2018-12-11T15:00:52.850Z,78.40
2018-12-11T15:03:22.191Z,77.50
2018-12-11T15:05:51.283Z,77.90
2018-12-11T15:08:20.770Z,78.70
2018-12-11T15:10:49.888Z,77.50
2018-12-11T15:13:19.684Z,78.70
2018-12-11T15:15:49.143Z,79.30
2018-12-11T15:18:18.218Z,78.80
2018-12-11T15:20:47.705Z,78.60
2018-12-11T15:23:16.854Z,78.40
2018-12-11T15:25:47.204Z,79.20
2018-12-11T15:28:22.872Z,79.40
2018-12-11T15:31:18.451Z,79.10
2018-12-11T15:33:47.596Z,78.70
2018-12-11T15:36:16.676Z,79.40
2018-12-11T15:38:46.004Z,79.30
2018-12-11T15:41:15.044Z,79.60
2018-12-11T15:43:44.256Z,79.40
2018-12-11T15:46:13.418Z,79.00
2018-12-11T15:48:42.678Z,79.50
2018-12-11T15:51:11.746Z,80.20
2018-12-11T15:53:40.852Z,79.40
2018-12-11T15:56:10.172Z,80.10
2018-12-11T15:58:39.192Z,80.40
2018-12-11T16:01:08.861Z,80.70
2018-12-11T16:03:38.038Z,80.00
2018-12-11T16:06:07.068Z,80.40
2018-12-11T16:08:36.114Z,81.40
2018-12-11T16:11:05.143Z,82.20
2018-12-11T16:13:34.246Z,82.10
2018-12-11T16:16:03.332Z,82.40
2018-12-11T16:18:32.451Z,82.80
2018-12-11T16:21:01.551Z,81.90
2018-12-11T16:23:30.612Z,81.90
2018-12-11T16:25:59.680Z,81.90
2018-12-11T16:28:29.021Z,81.60
2018-12-11T16:30:58.314Z,82.10
2018-12-11T16:33:27.346Z,82.50
2018-12-11T16:35:56.415Z,81.90
2018-12-11T16:38:25.766Z,82.20
2018-12-11T16:40:55.110Z,82.80
2018-12-11T16:43:24.296Z,82.80
2018-12-11T16:45:53.368Z,82.40
2018-12-11T16:48:22.757Z,82.80
2018-12-11T16:50:51.927Z,83.20
2018-12-11T16:53:20.966Z,83.30
2018-12-11T16:55:50.290Z,83.30
2018-12-11T16:58:19.605Z,83.80
2018-12-11T17:00:48.634Z,83.90
2018-12-11T17:03:17.722Z,84.20
2018-12-11T17:05:46.882Z,84.20
2018-12-11T17:08:15.968Z,84.40
2018-12-11T17:10:46.008Z,84.60
2018-12-11T17:13:16.883Z,84.20
2018-12-11T17:15:47.776Z,83.90
2018-12-11T17:18:17.717Z,84.20
2018-12-11T17:20:47.598Z,84.70
2018-12-11T17:23:17.276Z,86.00
2018-12-11T17:25:47.440Z,86.90
2018-12-11T17:28:17.661Z,86.70
2018-12-11T17:30:46.903Z,86.80
2018-12-11T17:33:16.631Z,87.10
2018-12-11T17:35:46.167Z,87.40
2018-12-11T17:38:15.218Z,87.80
2018-12-11T17:40:44.327Z,88.10
2018-12-11T17:43:13.751Z,88.00
2018-12-11T17:45:42.845Z,87.80
2018-12-11T17:48:12.328Z,87.10
2018-12-11T17:50:41.669Z,87.10
2018-12-11T17:53:10.857Z,86.90
2018-12-11T17:55:40.365Z,86.80
2018-12-11T17:58:09.599Z,86.40
2018-12-11T18:00:38.794Z,86.30
2018-12-11T18:03:07.914Z,86.80
2018-12-11T18:05:36.976Z,87.30
2018-12-11T18:08:06.135Z,87.10
2018-12-11T18:10:35.304Z,86.80
2018-12-11T18:13:04.425Z,86.40
2018-12-11T18:15:33.751Z,86.20
2018-12-11T18:18:02.862Z,86.60
2018-12-11T18:20:32.989Z,87.30
2018-12-11T18:23:02.393Z,86.80
2018-12-11T18:25:31.573Z,86.80
2018-12-11T18:28:00.897Z,86.70
2018-12-11T18:30:30.138Z,86.60
2018-12-11T18:32:59.602Z,86.70
2018-12-11T18:35:29.398Z,87.10
2018-12-11T18:37:58.660Z,87.40
2018-12-11T18:40:27.929Z,86.80
2018-12-11T18:42:57.159Z,86.50
2018-12-11T18:45:26.303Z,86.30
2018-12-11T18:47:55.561Z,86.70
2018-12-11T18:50:24.859Z,87.20
2018-12-11T18:52:54.497Z,87.30
2018-12-11T18:55:24.526Z,87.30
2018-12-11T18:57:53.801Z,87.60
2018-12-11T19:00:22.874Z,87.20
2018-12-11T19:02:52.250Z,87.40
2018-12-11T19:05:21.301Z,87.50
2018-12-11T19:07:51.946Z,87.80
2018-12-11T19:10:23.243Z,87.40
2018-12-11T19:12:52.374Z,87.70
2018-12-11T19:15:22.766Z,88.20
2018-12-11T19:17:51.871Z,88.50
2018-12-11T19:20:21.756Z,87.80
2018-12-11T19:22:52.161Z,87.40
2018-12-11T19:25:21.316Z,87.20
2018-12-11T19:27:50.712Z,88.60
2018-12-11T19:30:19.847Z,90.10
2018-12-11T19:32:52.185Z,89.50
2018-12-11T19:35:22.150Z,89.10
2018-12-11T19:37:54.890Z,89.50
2018-12-11T19:40:25.141Z,89.70
2018-12-11T19:42:54.866Z,89.80
2018-12-11T19:45:27.611Z,90.00
2018-12-11T19:47:59.562Z,89.50
2018-12-11T19:50:29.631Z,89.20
2018-12-11T19:53:00.247Z,88.60
2018-12-11T19:55:29.398Z,88.40
2018-12-11T19:57:59.838Z,88.50
2018-12-11T20:00:31.058Z,88.70
2018-12-11T20:03:00.234Z,89.00
2018-12-11T20:05:31.529Z,89.80
2018-12-11T20:08:00.717Z,90.10
2018-12-11T20:10:29.976Z,90.50
2018-12-11T20:12:58.993Z,90.60
2018-12-11T20:15:28.134Z,90.50
2018-12-11T20:17:57.242Z,90.30
2018-12-11T20:20:28.891Z,90.20
2018-12-11T20:22:57.999Z,90.30
2018-12-11T20:25:27.183Z,90.50
2018-12-11T20:27:56.720Z,90.60
2018-12-11T20:30:25.795Z,90.70
2018-12-11T20:32:54.874Z,90.50
2018-12-11T20:35:23.925Z,90.50
2018-12-11T20:37:53.001Z,90.40
2018-12-11T20:40:22.081Z,90.30
2018-12-11T20:42:51.142Z,90.30
2018-12-11T20:45:20.169Z,90.10
2018-12-11T20:47:49.420Z,90.20
2018-12-11T20:50:18.949Z,90.10
2018-12-11T20:52:48.949Z,90.10
2018-12-11T20:55:18.003Z,90.40
2018-12-11T20:57:47.177Z,90.50
2018-12-11T21:00:16.247Z,90.60
2018-12-11T21:02:45.522Z,90.60
2018-12-11T21:05:14.773Z,90.60
2018-12-11T21:07:44.088Z,90.50
2018-12-11T21:10:13.320Z,90.30
2018-12-11T21:12:42.503Z,90.30
2018-12-11T21:15:11.687Z,90.30
2018-12-11T21:17:40.949Z,90.50
2018-12-11T21:20:10.049Z,90.70
2018-12-11T21:22:39.276Z,90.80
2018-12-11T21:25:08.588Z,90.90
2018-12-11T21:27:37.622Z,91.00
2018-12-11T21:30:08.849Z,90.80
2018-12-11T21:32:37.967Z,90.80
2018-12-11T21:35:08.581Z,90.70
2018-12-11T21:37:37.616Z,91.20
2018-12-11T21:40:08.401Z,91.70
2018-12-11T21:42:37.705Z,91.60
2018-12-11T21:45:07.014Z,91.60
2018-12-11T21:47:36.065Z,91.40
2018-12-11T21:50:07.440Z,91.50
2018-12-11T21:52:36.611Z,91.40
2018-12-11T21:55:07.017Z,91.40
2018-12-11T21:57:36.167Z,91.10
2018-12-11T22:00:08.507Z,91.10
2018-12-11T22:02:37.781Z,91.30
2018-12-11T22:05:07.107Z,91.20
2018-12-11T22:07:36.141Z,91.20
2018-12-11T22:10:05.985Z,91.60
2018-12-11T22:12:35.383Z,91.00
2018-12-11T22:15:05.567Z,91.00
2018-12-11T22:17:34.642Z,91.20
2018-12-11T22:20:04.207Z,91.20
2018-12-11T22:22:33.463Z,91.30
2018-12-11T22:25:02.853Z,91.30
2018-12-11T22:27:31.905Z,91.20
2018-12-11T22:30:01.031Z,90.90
2018-12-11T22:32:30.499Z,90.80
2018-12-11T22:34:59.527Z,90.90
2018-12-11T22:37:28.620Z,90.90
2018-12-11T22:39:57.739Z,90.80
2018-12-11T22:42:27.049Z,91.20
2018-12-11T22:44:56.145Z,91.40
2018-12-11T22:47:25.605Z,91.60
2018-12-11T22:49:54.661Z,91.60
2018-12-11T22:52:23.899Z,91.60
2018-12-11T22:54:53.542Z,91.60
2018-12-11T22:57:23.619Z,91.70
2018-12-11T22:59:52.706Z,91.70
2018-12-11T23:02:21.868Z,91.90
2018-12-11T23:04:52.894Z,92.00
2018-12-11T23:07:22.406Z,92.00
2018-12-11T23:09:51.446Z,91.70
2018-12-11T23:12:20.508Z,91.70
2018-12-11T23:14:49.706Z,91.70
2018-12-11T23:17:19.158Z,92.00
2018-12-11T23:19:48.314Z,91.80
2018-12-11T23:22:17.346Z,91.50
2018-12-11T23:24:46.962Z,91.30
2018-12-11T23:27:16.181Z,91.10
2018-12-11T23:29:45.342Z,90.90
2018-12-11T23:32:14.350Z,91.10
2018-12-11T23:34:43.489Z,91.30
2018-12-11T23:37:12.541Z,91.50
2018-12-11T23:39:41.648Z,91.50
2018-12-11T23:42:10.845Z,91.40
2018-12-11T23:44:39.996Z,90.90
2018-12-11T23:47:09.045Z,90.90
2018-12-11T23:49:38.091Z,90.70
2018-12-11T23:52:07.161Z,90.70
2018-12-11T23:54:36.166Z,90.60
2018-12-11T23:57:05.262Z,90.90
2018-12-11T23:59:34.284Z,91.20
